sensor_id;sensor_type;location;lat;lon;timestamp;temperature;humidity
35970;DHT22;22448;51.298;6.430;2022-09-28T00:01:22;7.70;99.90
35970;DHT22;22448;51.298;6.430;2022-09-28T00:03:52;7.70;99.90
35970;DHT22;22448;51.298;6.430;2022-09-28T00:06:22;7.70;99.90
35970;DHT22;22448;51.298;6.430;2022-09-28T00:08:50;7.60;99.90
35970;DHT22;22448;51.298;6.430;2022-09-28T00:11:19;7.60;99.90
35970;DHT22;22448;51.298;6.430;2022-09-28T00:13:51;7.60;99.90
35970;DHT22;22448;51.298;6.430;2022-09-28T00:16:21;7.60;99.90
35970;DHT22;22448;51.298;6.430;2022-09-28T00:18:48;7.50;99.90
35970;DHT22;22448;51.298;6.430;2022-09-28T00:21:22;7.50;99.90
35970;DHT22;22448;51.298;6.430;2022-09-28T00:23:53;7.40;99.90
35970;DHT22;22448;51.298;6.430;2022-09-28T00:26:52;7.30;99.90
35970;DHT22;22448;51.298;6.430;2022-09-28T00:29:27;7.30;99.90
35970;DHT22;22448;51.298;6.430;2022-09-28T00:32:00;7.30;99.90
35970;DHT22;22448;51.298;6.430;2022-09-28T00:34:31;7.20;99.90
35970;DHT22;22448;51.298;6.430;2022-09-28T00:36:59;7.10;99.90
35970;DHT22;22448;51.298;6.430;2022-09-28T00:39:26;7.10;99.90
35970;DHT22;22448;51.298;6.430;2022-09-28T00:41:54;7.10;99.90
35970;DHT22;22448;51.298;6.430;2022-09-28T00:47:02;7.00;99.90
35970;DHT22;22448;51.298;6.430;2022-09-28T00:52:13;7.00;99.90
35970;DHT22;22448;51.298;6.430;2022-09-28T00:54:42;7.10;99.90
35970;DHT22;22448;51.298;6.430;2022-09-28T00:57:11;7.10;99.90
35970;DHT22;22448;51.298;6.430;2022-09-28T00:59:39;7.20;99.90
35970;DHT22;22448;51.298;6.430;2022-09-28T01:02:07;7.20;99.90
35970;DHT22;22448;51.298;6.430;2022-09-28T01:04:39;7.20;99.90
35970;DHT22;22448;51.298;6.430;2022-09-28T01:07:08;7.20;99.90
35970;DHT22;22448;51.298;6.430;2022-09-28T01:09:38;7.20;99.90
35970;DHT22;22448;51.298;6.430;2022-09-28T01:12:07;7.20;99.90
35970;DHT22;22448;51.298;6.430;2022-09-28T01:14:34;7.20;99.90
35970;DHT22;22448;51.298;6.430;2022-09-28T01:17:15;7.20;99.90
35970;DHT22;22448;51.298;6.430;2022-09-28T01:20:12;7.20;99.90
35970;DHT22;22448;51.298;6.430;2022-09-28T01:25:57;7.30;99.90
35970;DHT22;22448;51.298;6.430;2022-09-28T01:28:30;7.40;99.90
35970;DHT22;22448;51.298;6.430;2022-09-28T01:31:09;7.40;99.90
35970;DHT22;22448;51.298;6.430;2022-09-28T01:33:45;7.50;99.90
35970;DHT22;22448;51.298;6.430;2022-09-28T01:36:22;7.50;99.90
35970;DHT22;22448;51.298;6.430;2022-09-28T01:38:54;7.50;99.90
35970;DHT22;22448;51.298;6.430;2022-09-28T01:41:24;7.50;99.90
35970;DHT22;22448;51.298;6.430;2022-09-28T01:43:55;7.50;99.90
35970;DHT22;22448;51.298;6.430;2022-09-28T01:46:30;7.50;99.90
35970;DHT22;22448;51.298;6.430;2022-09-28T01:49:22;7.60;99.90
35970;DHT22;22448;51.298;6.430;2022-09-28T01:55:12;7.60;99.90
35970;DHT22;22448;51.298;6.430;2022-09-28T01:58:21;7.60;99.90
35970;DHT22;22448;51.298;6.430;2022-09-28T02:00:55;7.60;99.90
35970;DHT22;22448;51.298;6.430;2022-09-28T02:03:28;7.60;99.90
35970;DHT22;22448;51.298;6.430;2022-09-28T02:06:09;7.60;99.90
35970;DHT22;22448;51.298;6.430;2022-09-28T02:08:42;7.60;99.90
35970;DHT22;22448;51.298;6.430;2022-09-28T02:11:15;7.60;99.90
35970;DHT22;22448;51.298;6.430;2022-09-28T02:13:48;7.60;99.90
35970;DHT22;22448;51.298;6.430;2022-09-28T02:16:19;7.70;99.90
35970;DHT22;22448;51.298;6.430;2022-09-28T02:18:48;7.60;99.90
35970;DHT22;22448;51.298;6.430;2022-09-28T02:21:25;7.60;99.90
35970;DHT22;22448;51.298;6.430;2022-09-28T02:23:56;7.60;99.90
35970;DHT22;22448;51.298;6.430;2022-09-28T02:26:29;7.60;99.90
35970;DHT22;22448;51.298;6.430;2022-09-28T02:28:57;7.60;99.90
35970;DHT22;22448;51.298;6.430;2022-09-28T02:31:25;7.60;99.90
35970;DHT22;22448;51.298;6.430;2022-09-28T02:33:55;7.60;99.90
35970;DHT22;22448;51.298;6.430;2022-09-28T02:36:25;7.60;99.90
35970;DHT22;22448;51.298;6.430;2022-09-28T02:38:52;7.70;99.90
35970;DHT22;22448;51.298;6.430;2022-09-28T02:44:38;7.70;99.90
35970;DHT22;22448;51.298;6.430;2022-09-28T03:25:05;7.90;99.90
35970;DHT22;22448;51.298;6.430;2022-09-28T03:27:33;7.80;99.90
35970;DHT22;22448;51.298;6.430;2022-09-28T03:30:01;7.90;99.90
35970;DHT22;22448;51.298;6.430;2022-09-28T03:33:08;7.90;99.90
35970;DHT22;22448;51.298;6.430;2022-09-28T03:36:37;7.90;99.90
35970;DHT22;22448;51.298;6.430;2022-09-28T03:39:44;7.90;99.90
35970;DHT22;22448;51.298;6.430;2022-09-28T03:42:15;7.90;99.90
35970;DHT22;22448;51.298;6.430;2022-09-28T03:44:47;7.90;99.90
35970;DHT22;22448;51.298;6.430;2022-09-28T03:47:15;7.90;99.90
35970;DHT22;22448;51.298;6.430;2022-09-28T03:49:44;7.80;99.90
35970;DHT22;22448;51.298;6.430;2022-09-28T03:52:13;7.80;99.90
35970;DHT22;22448;51.298;6.430;2022-09-28T03:54:40;7.80;99.90
35970;DHT22;22448;51.298;6.430;2022-09-28T03:57:12;7.80;99.90
35970;DHT22;22448;51.298;6.430;2022-09-28T03:59:39;7.80;99.90
35970;DHT22;22448;51.298;6.430;2022-09-28T04:02:07;7.70;99.90
35970;DHT22;22448;51.298;6.430;2022-09-28T04:04:34;7.70;99.90
35970;DHT22;22448;51.298;6.430;2022-09-28T04:07:01;7.80;99.90
35970;DHT22;22448;51.298;6.430;2022-09-28T04:09:28;7.80;99.90
35970;DHT22;22448;51.298;6.430;2022-09-28T04:11:55;7.80;99.90
35970;DHT22;22448;51.298;6.430;2022-09-28T04:14:31;7.70;99.90
35970;DHT22;22448;51.298;6.430;2022-09-28T04:16:58;7.70;99.90
35970;DHT22;22448;51.298;6.430;2022-09-28T04:19:29;7.70;99.90
35970;DHT22;22448;51.298;6.430;2022-09-28T04:22:06;7.60;99.90
35970;DHT22;22448;51.298;6.430;2022-09-28T04:24:33;7.60;99.90
35970;DHT22;22448;51.298;6.430;2022-09-28T04:27:00;7.60;99.90
35970;DHT22;22448;51.298;6.430;2022-09-28T04:29:47;7.60;99.90
35970;DHT22;22448;51.298;6.430;2022-09-28T04:32:15;7.50;99.90
35970;DHT22;22448;51.298;6.430;2022-09-28T04:34:42;7.40;99.90
35970;DHT22;22448;51.298;6.430;2022-09-28T04:37:10;7.40;99.90
35970;DHT22;22448;51.298;6.430;2022-09-28T04:39:38;7.40;99.90
35970;DHT22;22448;51.298;6.430;2022-09-28T04:42:09;7.40;99.90
35970;DHT22;22448;51.298;6.430;2022-09-28T04:44:37;7.40;99.90
35970;DHT22;22448;51.298;6.430;2022-09-28T04:47:07;7.40;99.90
35970;DHT22;22448;51.298;6.430;2022-09-28T04:49:49;7.50;99.90
35970;DHT22;22448;51.298;6.430;2022-09-28T04:52:19;7.50;99.90
35970;DHT22;22448;51.298;6.430;2022-09-28T04:54:47;7.50;99.90
35970;DHT22;22448;51.298;6.430;2022-09-28T04:57:15;7.50;99.90
35970;DHT22;22448;51.298;6.430;2022-09-28T04:59:42;7.50;99.90
35970;DHT22;22448;51.298;6.430;2022-09-28T05:02:09;7.50;99.90
35970;DHT22;22448;51.298;6.430;2022-09-28T05:04:56;7.50;99.90
35970;DHT22;22448;51.298;6.430;2022-09-28T05:07:46;7.50;99.90
35970;DHT22;22448;51.298;6.430;2022-09-28T05:10:13;7.40;99.90
35970;DHT22;22448;51.298;6.430;2022-09-28T05:12:40;7.40;99.90
35970;DHT22;22448;51.298;6.430;2022-09-28T05:15:09;7.40;99.90
35970;DHT22;22448;51.298;6.430;2022-09-28T05:17:36;7.40;99.90
35970;DHT22;22448;51.298;6.430;2022-09-28T05:20:23;7.30;99.90
35970;DHT22;22448;51.298;6.430;2022-09-28T05:22:50;7.40;99.90
35970;DHT22;22448;51.298;6.430;2022-09-28T05:25:17;7.40;99.90
35970;DHT22;22448;51.298;6.430;2022-09-28T05:27:55;7.40;99.90
35970;DHT22;22448;51.298;6.430;2022-09-28T05:30:36;7.40;99.90
35970;DHT22;22448;51.298;6.430;2022-09-28T05:33:35;7.40;99.90
35970;DHT22;22448;51.298;6.430;2022-09-28T05:36:10;7.50;99.90
35970;DHT22;22448;51.298;6.430;2022-09-28T05:38:37;7.50;99.90
35970;DHT22;22448;51.298;6.430;2022-09-28T05:41:04;7.50;99.90
35970;DHT22;22448;51.298;6.430;2022-09-28T05:43:33;7.50;99.90
35970;DHT22;22448;51.298;6.430;2022-09-28T05:46:03;7.60;99.90
35970;DHT22;22448;51.298;6.430;2022-09-28T05:48:32;7.60;99.90
35970;DHT22;22448;51.298;6.430;2022-09-28T05:50:59;7.60;99.90
35970;DHT22;22448;51.298;6.430;2022-09-28T05:53:26;7.60;99.90
35970;DHT22;22448;51.298;6.430;2022-09-28T05:55:57;7.60;99.90
35970;DHT22;22448;51.298;6.430;2022-09-28T05:58:24;7.60;99.90
35970;DHT22;22448;51.298;6.430;2022-09-28T06:00:54;7.60;99.90
35970;DHT22;22448;51.298;6.430;2022-09-28T06:03:22;7.60;99.90
35970;DHT22;22448;51.298;6.430;2022-09-28T06:05:49;7.70;99.90
35970;DHT22;22448;51.298;6.430;2022-09-28T06:08:16;7.80;99.90
35970;DHT22;22448;51.298;6.430;2022-09-28T06:10:48;7.80;99.90
35970;DHT22;22448;51.298;6.430;2022-09-28T06:13:16;7.90;99.90
35970;DHT22;22448;51.298;6.430;2022-09-28T06:15:43;7.80;99.90
35970;DHT22;22448;51.298;6.430;2022-09-28T06:18:13;7.80;99.90
35970;DHT22;22448;51.298;6.430;2022-09-28T06:20:59;7.80;99.90
35970;DHT22;22448;51.298;6.430;2022-09-28T06:23:31;7.90;99.90
35970;DHT22;22448;51.298;6.430;2022-09-28T06:25:58;7.90;99.90
35970;DHT22;22448;51.298;6.430;2022-09-28T06:28:25;7.90;99.90
35970;DHT22;22448;51.298;6.430;2022-09-28T06:30:53;7.90;99.90
35970;DHT22;22448;51.298;6.430;2022-09-28T06:33:20;8.00;99.90
35970;DHT22;22448;51.298;6.430;2022-09-28T06:35:47;8.00;99.90
35970;DHT22;22448;51.298;6.430;2022-09-28T06:38:14;8.00;99.90
35970;DHT22;22448;51.298;6.430;2022-09-28T06:40:41;8.10;99.90
35970;DHT22;22448;51.298;6.430;2022-09-28T06:43:11;8.20;99.90
35970;DHT22;22448;51.298;6.430;2022-09-28T06:46:16;8.30;99.90
35970;DHT22;22448;51.298;6.430;2022-09-28T06:48:48;8.40;99.90
35970;DHT22;22448;51.298;6.430;2022-09-28T06:51:19;8.40;99.90
35970;DHT22;22448;51.298;6.430;2022-09-28T06:53:55;8.40;99.90
35970;DHT22;22448;51.298;6.430;2022-09-28T06:56:48;8.50;99.90
35970;DHT22;22448;51.298;6.430;2022-09-28T06:59:17;8.60;99.90
35970;DHT22;22448;51.298;6.430;2022-09-28T07:01:44;8.60;99.90
35970;DHT22;22448;51.298;6.430;2022-09-28T07:04:46;8.70;99.90
35970;DHT22;22448;51.298;6.430;2022-09-28T07:07:36;8.80;99.90
35970;DHT22;22448;51.298;6.430;2022-09-28T07:10:23;8.90;99.90
35970;DHT22;22448;51.298;6.430;2022-09-28T07:13:09;9.00;99.90
35970;DHT22;22448;51.298;6.430;2022-09-28T07:16:04;9.10;99.90
35970;DHT22;22448;51.298;6.430;2022-09-28T07:18:31;9.20;99.90
35970;DHT22;22448;51.298;6.430;2022-09-28T07:20:59;9.30;99.90
35970;DHT22;22448;51.298;6.430;2022-09-28T07:23:29;9.30;99.90
35970;DHT22;22448;51.298;6.430;2022-09-28T07:26:28;9.40;99.90
35970;DHT22;22448;51.298;6.430;2022-09-28T07:28:58;9.50;99.90
35970;DHT22;22448;51.298;6.430;2022-09-28T07:31:48;9.50;99.90
35970;DHT22;22448;51.298;6.430;2022-09-28T07:34:34;9.60;99.90
35970;DHT22;22448;51.298;6.430;2022-09-28T07:37:14;9.70;99.90
35970;DHT22;22448;51.298;6.430;2022-09-28T07:39:42;9.80;99.90
35970;DHT22;22448;51.298;6.430;2022-09-28T07:42:30;10.00;99.90
35970;DHT22;22448;51.298;6.430;2022-09-28T07:44:57;10.20;99.90
35970;DHT22;22448;51.298;6.430;2022-09-28T07:47:26;10.30;99.90
35970;DHT22;22448;51.298;6.430;2022-09-28T07:50:27;10.40;99.90
35970;DHT22;22448;51.298;6.430;2022-09-28T07:53:11;10.70;99.90
35970;DHT22;22448;51.298;6.430;2022-09-28T07:55:56;10.70;99.90
35970;DHT22;22448;51.298;6.430;2022-09-28T07:58:47;10.80;99.90
35970;DHT22;22448;51.298;6.430;2022-09-28T08:01:40;10.90;99.90
35970;DHT22;22448;51.298;6.430;2022-09-28T08:04:10;10.90;99.90
35970;DHT22;22448;51.298;6.430;2022-09-28T08:06:39;10.90;99.90
35970;DHT22;22448;51.298;6.430;2022-09-28T08:09:08;10.80;99.90
35970;DHT22;22448;51.298;6.430;2022-09-28T08:12:07;10.90;99.90
35970;DHT22;22448;51.298;6.430;2022-09-28T08:14:45;10.90;99.90
35970;DHT22;22448;51.298;6.430;2022-09-28T08:17:36;11.00;99.90
35970;DHT22;22448;51.298;6.430;2022-09-28T08:20:07;11.10;99.90
35970;DHT22;22448;51.298;6.430;2022-09-28T08:22:55;11.10;99.90
35970;DHT22;22448;51.298;6.430;2022-09-28T08:25:28;11.20;99.90
35970;DHT22;22448;51.298;6.430;2022-09-28T08:27:55;11.50;99.90
35970;DHT22;22448;51.298;6.430;2022-09-28T08:30:24;11.80;99.90
35970;DHT22;22448;51.298;6.430;2022-09-28T08:33:03;12.00;99.90
35970;DHT22;22448;51.298;6.430;2022-09-28T08:35:42;12.00;99.90
35970;DHT22;22448;51.298;6.430;2022-09-28T08:38:12;12.00;99.90
35970;DHT22;22448;51.298;6.430;2022-09-28T08:41:22;12.20;99.90
35970;DHT22;22448;51.298;6.430;2022-09-28T08:44:11;12.40;99.90
35970;DHT22;22448;51.298;6.430;2022-09-28T08:47:24;12.60;99.90
35970;DHT22;22448;51.298;6.430;2022-09-28T08:50:29;12.90;99.90
35970;DHT22;22448;51.298;6.430;2022-09-28T08:53:32;13.30;99.90
35970;DHT22;22448;51.298;6.430;2022-09-28T08:56:17;13.30;99.90
35970;DHT22;22448;51.298;6.430;2022-09-28T08:58:51;13.00;99.90
35970;DHT22;22448;51.298;6.430;2022-09-28T09:01:20;12.90;99.90
35970;DHT22;22448;51.298;6.430;2022-09-28T09:03:49;12.90;99.90
35970;DHT22;22448;51.298;6.430;2022-09-28T09:10:06;13.80;99.90
35970;DHT22;22448;51.298;6.430;2022-09-28T09:12:42;14.10;99.90
35970;DHT22;22448;51.298;6.430;2022-09-28T09:18:10;13.80;99.90
35970;DHT22;22448;51.298;6.430;2022-09-28T09:23:53;13.40;99.90
35970;DHT22;22448;51.298;6.430;2022-09-28T09:26:40;13.30;99.90
35970;DHT22;22448;51.298;6.430;2022-09-28T09:38:24;13.60;99.90
35970;DHT22;22448;51.298;6.430;2022-09-28T09:42:02;13.60;99.90
35970;DHT22;22448;51.298;6.430;2022-09-28T09:45:42;13.30;99.90
35970;DHT22;22448;51.298;6.430;2022-09-28T09:48:13;13.20;99.90
35970;DHT22;22448;51.298;6.430;2022-09-28T09:50:50;13.10;99.90
35970;DHT22;22448;51.298;6.430;2022-09-28T09:53:29;13.10;99.90
35970;DHT22;22448;51.298;6.430;2022-09-28T09:56:16;13.30;99.90
35970;DHT22;22448;51.298;6.430;2022-09-28T09:59:04;13.50;99.90
35970;DHT22;22448;51.298;6.430;2022-09-28T10:01:39;13.50;99.90
35970;DHT22;22448;51.298;6.430;2022-09-28T10:04:35;13.50;99.90
35970;DHT22;22448;51.298;6.430;2022-09-28T10:07:17;13.60;99.90
35970;DHT22;22448;51.298;6.430;2022-09-28T10:09:47;13.90;99.90
35970;DHT22;22448;51.298;6.430;2022-09-28T10:12:32;14.30;99.90
35970;DHT22;22448;51.298;6.430;2022-09-28T10:15:02;14.60;99.90
35970;DHT22;22448;51.298;6.430;2022-09-28T10:17:41;14.80;99.90
35970;DHT22;22448;51.298;6.430;2022-09-28T10:20:34;14.90;99.90
35970;DHT22;22448;51.298;6.430;2022-09-28T10:23:28;14.80;99.90
35970;DHT22;22448;51.298;6.430;2022-09-28T10:26:01;14.70;99.90
35970;DHT22;22448;51.298;6.430;2022-09-28T10:28:46;14.60;99.90
35970;DHT22;22448;51.298;6.430;2022-09-28T10:34:03;14.90;99.90
35970;DHT22;22448;51.298;6.430;2022-09-28T10:36:32;14.70;99.90
35970;DHT22;22448;51.298;6.430;2022-09-28T10:39:05;14.80;99.90
35970;DHT22;22448;51.298;6.430;2022-09-28T10:41:33;15.10;99.90
35970;DHT22;22448;51.298;6.430;2022-09-28T10:44:16;15.20;99.90
35970;DHT22;22448;51.298;6.430;2022-09-28T10:47:01;15.00;99.90
35970;DHT22;22448;51.298;6.430;2022-09-28T10:49:39;14.80;99.90
35970;DHT22;22448;51.298;6.430;2022-09-28T10:54:58;14.50;99.90
35970;DHT22;22448;51.298;6.430;2022-09-28T10:57:35;14.20;99.90
35970;DHT22;22448;51.298;6.430;2022-09-28T11:03:23;13.70;99.90
35970;DHT22;22448;51.298;6.430;2022-09-28T11:06:02;13.70;99.90
35970;DHT22;22448;51.298;6.430;2022-09-28T11:08:40;13.80;99.90
35970;DHT22;22448;51.298;6.430;2022-09-28T11:11:14;13.90;99.90
35970;DHT22;22448;51.298;6.430;2022-09-28T11:13:47;14.40;99.90
35970;DHT22;22448;51.298;6.430;2022-09-28T11:16:32;14.90;99.90
35970;DHT22;22448;51.298;6.430;2022-09-28T11:21:47;15.80;99.90
35970;DHT22;22448;51.298;6.430;2022-09-28T11:24:22;15.70;99.90
35970;DHT22;22448;51.298;6.430;2022-09-28T11:26:56;15.70;99.90
35970;DHT22;22448;51.298;6.430;2022-09-28T11:29:37;15.80;99.90
35970;DHT22;22448;51.298;6.430;2022-09-28T11:32:16;16.10;99.90
35970;DHT22;22448;51.298;6.430;2022-09-28T11:35:02;16.50;99.90
35970;DHT22;22448;51.298;6.430;2022-09-28T11:43:46;17.00;99.90
35970;DHT22;22448;51.298;6.430;2022-09-28T11:52:05;17.20;99.90
35970;DHT22;22448;51.298;6.430;2022-09-28T11:54:44;17.30;99.90
35970;DHT22;22448;51.298;6.430;2022-09-28T11:57:20;17.60;99.90
35970;DHT22;22448;51.298;6.430;2022-09-28T11:59:57;17.80;99.90
35970;DHT22;22448;51.298;6.430;2022-09-28T12:02:33;17.90;99.90
35970;DHT22;22448;51.298;6.430;2022-09-28T12:05:32;17.90;99.90
35970;DHT22;22448;51.298;6.430;2022-09-28T12:11:14;18.00;99.90
35970;DHT22;22448;51.298;6.430;2022-09-28T12:14:32;18.30;99.90
35970;DHT22;22448;51.298;6.430;2022-09-28T12:17:33;18.20;99.90
35970;DHT22;22448;51.298;6.430;2022-09-28T12:22:54;17.10;99.90
35970;DHT22;22448;51.298;6.430;2022-09-28T12:25:33;16.50;99.90
35970;DHT22;22448;51.298;6.430;2022-09-28T12:28:10;16.00;99.90
35970;DHT22;22448;51.298;6.430;2022-09-28T12:30:40;15.80;99.90
35970;DHT22;22448;51.298;6.430;2022-09-28T12:33:12;15.50;99.90
35970;DHT22;22448;51.298;6.430;2022-09-28T12:51:53;15.10;99.90
35970;DHT22;22448;51.298;6.430;2022-09-28T12:59:55;15.30;99.90
35970;DHT22;22448;51.298;6.430;2022-09-28T13:08:12;16.50;99.90
35970;DHT22;22448;51.298;6.430;2022-09-28T13:13:42;16.30;99.90
35970;DHT22;22448;51.298;6.430;2022-09-28T13:19:20;16.50;99.90
35970;DHT22;22448;51.298;6.430;2022-09-28T13:24:59;16.40;99.90
35970;DHT22;22448;51.298;6.430;2022-09-28T13:27:38;16.30;99.90
35970;DHT22;22448;51.298;6.430;2022-09-28T13:30:06;16.30;99.90
35970;DHT22;22448;51.298;6.430;2022-09-28T13:32:35;16.40;99.90
35970;DHT22;22448;51.298;6.430;2022-09-28T13:35:03;16.40;99.90
35970;DHT22;22448;51.298;6.430;2022-09-28T13:37:31;16.50;99.90
35970;DHT22;22448;51.298;6.430;2022-09-28T13:40:00;16.60;99.90
35970;DHT22;22448;51.298;6.430;2022-09-28T14:02:47;16.00;99.90
35970;DHT22;22448;51.298;6.430;2022-09-28T14:10:57;15.30;99.90
35970;DHT22;22448;51.298;6.430;2022-09-28T14:18:47;14.70;99.90
35970;DHT22;22448;51.298;6.430;2022-09-28T14:21:31;14.60;99.90
35970;DHT22;22448;51.298;6.430;2022-09-28T14:27:06;14.20;99.90
35970;DHT22;22448;51.298;6.430;2022-09-28T14:29:38;14.00;99.90
35970;DHT22;22448;51.298;6.430;2022-09-28T14:34:41;13.60;99.90
35970;DHT22;22448;51.298;6.430;2022-09-28T14:37:23;13.30;99.90
35970;DHT22;22448;51.298;6.430;2022-09-28T14:40:30;13.20;99.90
35970;DHT22;22448;51.298;6.430;2022-09-28T14:43:21;12.90;99.90
35970;DHT22;22448;51.298;6.430;2022-09-28T14:48:52;12.50;99.90
35970;DHT22;22448;51.298;6.430;2022-09-28T14:53:55;12.10;99.90
35970;DHT22;22448;51.298;6.430;2022-09-28T14:56:44;11.80;99.90
35970;DHT22;22448;51.298;6.430;2022-09-28T14:59:16;11.60;99.90
35970;DHT22;22448;51.298;6.430;2022-09-28T15:01:52;11.40;99.90
35970;DHT22;22448;51.298;6.430;2022-09-28T15:04:23;11.30;99.90
35970;DHT22;22448;51.298;6.430;2022-09-28T15:06:52;11.10;99.90
35970;DHT22;22448;51.298;6.430;2022-09-28T15:14:52;10.70;99.90
35970;DHT22;22448;51.298;6.430;2022-09-28T15:17:22;10.40;99.90
35970;DHT22;22448;51.298;6.430;2022-09-28T15:23:32;10.00;99.90
35970;DHT22;22448;51.298;6.430;2022-09-28T16:53:59;10.00;99.90
35970;DHT22;22448;51.298;6.430;2022-09-28T17:24:57;9.30;99.90
35970;DHT22;22448;51.298;6.430;2022-09-28T17:28:32;9.20;99.90
35970;DHT22;22448;51.298;6.430;2022-09-28T17:31:14;9.10;99.90
35970;DHT22;22448;51.298;6.430;2022-09-28T17:33:42;9.10;99.90
35970;DHT22;22448;51.298;6.430;2022-09-28T17:36:13;9.00;99.90
35970;DHT22;22448;51.298;6.430;2022-09-28T17:38:41;8.90;99.90
35970;DHT22;22448;51.298;6.430;2022-09-28T17:41:11;8.90;99.90
35970;DHT22;22448;51.298;6.430;2022-09-28T17:43:45;8.90;99.90
35970;DHT22;22448;51.298;6.430;2022-09-28T17:46:37;8.80;99.90
35970;DHT22;22448;51.298;6.430;2022-09-28T17:49:09;8.70;99.90
35970;DHT22;22448;51.298;6.430;2022-09-28T17:51:37;8.70;99.90
35970;DHT22;22448;51.298;6.430;2022-09-28T17:54:05;8.70;99.90
35970;DHT22;22448;51.298;6.430;2022-09-28T17:56:34;8.70;99.90
35970;DHT22;22448;51.298;6.430;2022-09-28T17:59:07;8.70;99.90
35970;DHT22;22448;51.298;6.430;2022-09-28T18:01:38;8.70;99.90
35970;DHT22;22448;51.298;6.430;2022-09-28T18:04:07;8.60;99.90
35970;DHT22;22448;51.298;6.430;2022-09-28T18:06:35;8.50;99.90
35970;DHT22;22448;51.298;6.430;2022-09-28T18:09:03;8.50;99.90
35970;DHT22;22448;51.298;6.430;2022-09-28T18:11:32;8.40;99.90
35970;DHT22;22448;51.298;6.430;2022-09-28T18:13:59;8.40;99.90
35970;DHT22;22448;51.298;6.430;2022-09-28T18:16:27;8.30;99.90
35970;DHT22;22448;51.298;6.430;2022-09-28T18:18:54;8.30;99.90
35970;DHT22;22448;51.298;6.430;2022-09-28T18:21:22;8.20;99.90
35970;DHT22;22448;51.298;6.430;2022-09-28T18:23:49;8.20;99.90
35970;DHT22;22448;51.298;6.430;2022-09-28T18:26:16;8.20;99.90
35970;DHT22;22448;51.298;6.430;2022-09-28T18:28:45;8.20;99.90
35970;DHT22;22448;51.298;6.430;2022-09-28T18:31:13;8.20;99.90
35970;DHT22;22448;51.298;6.430;2022-09-28T18:33:41;8.20;99.90
35970;DHT22;22448;51.298;6.430;2022-09-28T18:36:08;8.20;99.90
35970;DHT22;22448;51.298;6.430;2022-09-28T18:38:36;8.20;99.90
35970;DHT22;22448;51.298;6.430;2022-09-28T18:41:12;8.20;99.90
35970;DHT22;22448;51.298;6.430;2022-09-28T18:43:47;8.20;99.90
35970;DHT22;22448;51.298;6.430;2022-09-28T18:46:15;8.30;99.90
35970;DHT22;22448;51.298;6.430;2022-09-28T18:48:44;8.30;99.90
35970;DHT22;22448;51.298;6.430;2022-09-28T18:51:13;8.30;99.90
35970;DHT22;22448;51.298;6.430;2022-09-28T18:53:40;8.30;99.90
35970;DHT22;22448;51.298;6.430;2022-09-28T18:56:09;8.30;99.90
35970;DHT22;22448;51.298;6.430;2022-09-28T18:58:37;8.30;99.90
35970;DHT22;22448;51.298;6.430;2022-09-28T19:01:14;8.30;99.90
35970;DHT22;22448;51.298;6.430;2022-09-28T19:03:58;8.30;99.90
35970;DHT22;22448;51.298;6.430;2022-09-28T19:06:26;8.20;99.90
35970;DHT22;22448;51.298;6.430;2022-09-28T19:08:54;8.20;99.90
35970;DHT22;22448;51.298;6.430;2022-09-28T19:11:22;8.20;99.90
35970;DHT22;22448;51.298;6.430;2022-09-28T19:13:49;8.20;99.90
35970;DHT22;22448;51.298;6.430;2022-09-28T19:16:18;8.20;99.90
35970;DHT22;22448;51.298;6.430;2022-09-28T19:18:47;8.10;99.90
35970;DHT22;22448;51.298;6.430;2022-09-28T19:21:14;8.10;99.90
35970;DHT22;22448;51.298;6.430;2022-09-28T19:23:42;8.10;99.90
35970;DHT22;22448;51.298;6.430;2022-09-28T19:26:18;8.10;99.90
35970;DHT22;22448;51.298;6.430;2022-09-28T19:28:46;8.10;99.90
35970;DHT22;22448;51.298;6.430;2022-09-28T19:31:14;8.00;99.90
35970;DHT22;22448;51.298;6.430;2022-09-28T19:33:42;8.00;99.90
35970;DHT22;22448;51.298;6.430;2022-09-28T19:36:14;7.90;99.90
35970;DHT22;22448;51.298;6.430;2022-09-28T19:38:42;7.80;99.90
35970;DHT22;22448;51.298;6.430;2022-09-28T19:41:17;7.80;99.90
35970;DHT22;22448;51.298;6.430;2022-09-28T19:44:16;7.80;99.90
35970;DHT22;22448;51.298;6.430;2022-09-28T19:47:06;7.70;99.90
35970;DHT22;22448;51.298;6.430;2022-09-28T19:49:35;7.70;99.90
35970;DHT22;22448;51.298;6.430;2022-09-28T19:52:21;7.70;99.90
35970;DHT22;22448;51.298;6.430;2022-09-28T19:54:49;7.70;99.90
35970;DHT22;22448;51.298;6.430;2022-09-28T19:57:28;7.70;99.90
35970;DHT22;22448;51.298;6.430;2022-09-28T19:59:56;7.70;99.90
35970;DHT22;22448;51.298;6.430;2022-09-28T20:02:32;7.60;99.90
35970;DHT22;22448;51.298;6.430;2022-09-28T20:04:59;7.60;99.90
35970;DHT22;22448;51.298;6.430;2022-09-28T20:07:26;7.50;99.90
35970;DHT22;22448;51.298;6.430;2022-09-28T20:09:53;7.50;99.90
35970;DHT22;22448;51.298;6.430;2022-09-28T20:12:20;7.50;99.90
35970;DHT22;22448;51.298;6.430;2022-09-28T20:14:48;7.50;99.90
35970;DHT22;22448;51.298;6.430;2022-09-28T20:17:14;7.50;99.90
35970;DHT22;22448;51.298;6.430;2022-09-28T20:19:41;7.40;99.90
35970;DHT22;22448;51.298;6.430;2022-09-28T20:22:08;7.40;99.90
35970;DHT22;22448;51.298;6.430;2022-09-28T20:24:36;7.30;99.90
35970;DHT22;22448;51.298;6.430;2022-09-28T20:27:03;7.30;99.90
35970;DHT22;22448;51.298;6.430;2022-09-28T20:29:30;7.30;99.90
35970;DHT22;22448;51.298;6.430;2022-09-28T20:31:59;7.30;99.90
35970;DHT22;22448;51.298;6.430;2022-09-28T20:34:26;7.20;99.90
35970;DHT22;22448;51.298;6.430;2022-09-28T20:36:53;7.20;99.90
35970;DHT22;22448;51.298;6.430;2022-09-28T20:39:20;7.20;99.90
35970;DHT22;22448;51.298;6.430;2022-09-28T20:41:48;7.10;99.90
35970;DHT22;22448;51.298;6.430;2022-09-28T20:44:15;7.10;99.90
35970;DHT22;22448;51.298;6.430;2022-09-28T20:46:42;7.10;99.90
35970;DHT22;22448;51.298;6.430;2022-09-28T20:49:10;7.00;99.90
35970;DHT22;22448;51.298;6.430;2022-09-28T20:51:37;7.00;99.90
35970;DHT22;22448;51.298;6.430;2022-09-28T20:54:04;7.00;99.90
35970;DHT22;22448;51.298;6.430;2022-09-28T20:56:32;7.00;99.90
35970;DHT22;22448;51.298;6.430;2022-09-28T20:59:07;6.90;99.90
35970;DHT22;22448;51.298;6.430;2022-09-28T21:01:35;6.90;99.90
35970;DHT22;22448;51.298;6.430;2022-09-28T21:04:04;6.80;99.90
35970;DHT22;22448;51.298;6.430;2022-09-28T21:06:37;6.80;99.90
35970;DHT22;22448;51.298;6.430;2022-09-28T21:09:05;6.80;99.90
35970;DHT22;22448;51.298;6.430;2022-09-28T21:11:32;6.80;99.90
35970;DHT22;22448;51.298;6.430;2022-09-28T21:14:03;6.80;99.90
35970;DHT22;22448;51.298;6.430;2022-09-28T21:16:32;6.80;99.90
35970;DHT22;22448;51.298;6.430;2022-09-28T21:19:00;6.80;99.90
35970;DHT22;22448;51.298;6.430;2022-09-28T21:21:27;6.80;99.90
35970;DHT22;22448;51.298;6.430;2022-09-28T21:23:55;6.80;99.90
35970;DHT22;22448;51.298;6.430;2022-09-28T21:26:25;6.80;99.90
35970;DHT22;22448;51.298;6.430;2022-09-28T21:28:57;6.80;99.90
35970;DHT22;22448;51.298;6.430;2022-09-28T21:31:27;6.80;99.90
35970;DHT22;22448;51.298;6.430;2022-09-28T21:33:56;6.80;99.90